Time;durP1;ratioP1;P1;durP2;ratioP2;P2;SDS_P1;SDS_P2;PMS_P1;PMS_P2;Temp;Humidity;BMP_temperature;BMP_pressure;BME280_temperature;BME280_humidity;BME280_pressure;Samples;Min_cycle;Max_cycle;Signal;HPM_P1;HPM_P2
2023/04/18 00:01:27;;;;;;;9.53;7.60;;;;;;;13.43;89.23;94306.03;5094046;28;20486;-80
2023/04/18 00:03:54;;;;;;;10.73;8.83;;;;;;;13.34;89.82;94296.47;5042557;28;20792;-79
2023/04/18 00:06:21;;;;;;;9.90;7.77;;;;;;;13.31;90.62;94304.72;5094093;28;20541;-79
2023/04/18 00:08:51;;;;;;;10.30;7.97;;;;;;;13.31;91.14;94302.09;5094462;28;20434;-78
2023/04/18 00:11:17;;;;;;;8.27;7.37;;;;;;;13.29;92.13;94299.56;5094313;28;20889;-79
2023/04/18 00:13:46;;;;;;;8.50;7.00;;;;;;;13.28;92.42;94297.09;5093595;28;20454;-79
2023/04/18 00:16:13;;;;;;;8.27;7.20;;;;;;;13.20;92.94;94295.28;5094417;28;20435;-79
2023/04/18 00:18:40;;;;;;;8.80;7.90;;;;;;;13.24;93.66;94301.06;5093741;28;20539;-79
2023/04/18 00:21:07;;;;;;;9.90;8.37;;;;;;;13.23;94.06;94305.50;5042088;28;20485;-77
2023/04/18 00:23:34;;;;;;;9.87;7.60;;;;;;;13.17;94.60;94292.97;5093947;28;20495;-79
2023/04/18 00:26:02;;;;;;;9.60;7.97;;;;;;;13.17;94.61;94295.59;5093162;28;20499;-79
2023/04/18 00:28:29;;;;;;;7.93;6.90;;;;;;;13.13;94.83;94294.25;5093659;28;20435;-79
2023/04/18 00:30:55;;;;;;;6.90;6.20;;;;;;;13.14;94.57;94306.44;5093468;28;20443;-78
2023/04/18 00:33:22;;;;;;;8.17;6.50;;;;;;;13.12;94.66;94300.50;5093546;28;20787;-79
2023/04/18 00:35:49;;;;;;;9.60;6.00;;;;;;;13.11;95.01;94295.41;5093564;28;20874;-79
2023/04/18 00:38:16;;;;;;;9.00;7.07;;;;;;;13.15;95.23;94292.28;5093520;28;20472;-79
2023/04/18 00:40:43;;;;;;;9.03;7.97;;;;;;;13.15;95.46;94289.66;5093726;28;20494;-79
2023/04/18 00:43:13;;;;;;;7.27;6.43;;;;;;;13.07;96.04;94281.72;5093101;28;20452;-78
2023/04/18 00:45:40;;;;;;;7.63;6.87;;;;;;;13.08;95.87;94296.53;5093247;28;20540;-78
2023/04/18 00:48:07;;;;;;;7.07;6.17;;;;;;;13.08;96.07;94298.34;5093632;28;20449;-79
2023/04/18 00:50:34;;;;;;;7.57;6.77;;;;;;;13.06;96.23;94285.34;5093523;28;20447;-79
2023/04/18 00:53:01;;;;;;;8.07;6.10;;;;;;;13.05;96.17;94281.06;5097072;28;20438;-81
2023/04/18 00:55:29;;;;;;;6.70;6.00;;;;;;;13.02;96.40;94274.31;5097650;28;20845;-80
2023/04/18 00:57:56;;;;;;;6.70;5.93;;;;;;;13.07;96.56;94278.25;5097688;28;20438;-80
2023/04/18 01:00:24;;;;;;;7.20;6.50;;;;;;;13.06;96.70;94279.25;5045130;28;20995;-80
2023/04/18 01:02:54;;;;;;;7.60;6.90;;;;;;;13.08;96.44;94286.00;5096937;28;20445;-80
2023/04/18 01:05:22;;;;;;;7.37;6.30;;;;;;;13.03;96.54;94278.59;5097345;28;20477;-79
2023/04/18 01:07:49;;;;;;;6.97;6.20;;;;;;;13.02;96.64;94279.56;5097435;28;20450;-81
2023/04/18 01:10:16;;;;;;;10.93;5.90;;;;;;;13.05;96.54;94274.97;5097611;28;20448;-80
2023/04/18 01:12:43;;;;;;;6.30;5.67;;;;;;;13.02;96.36;94273.47;5044823;28;20437;-80
2023/04/18 01:15:10;;;;;;;8.47;6.70;;;;;;;13.03;96.64;94270.69;5097250;28;20450;-80
2023/04/18 01:17:38;;;;;;;6.97;6.33;;;;;;;13.03;96.32;94268.06;5097325;28;20437;-80
2023/04/18 01:20:06;;;;;;;7.23;6.17;;;;;;;13.05;95.97;94272.34;5096806;28;20480;-80
2023/04/18 01:22:33;;;;;;;10.10;5.90;;;;;;;13.00;95.95;94278.88;5097049;28;20831;-80
2023/04/18 01:25:07;;;;;;;6.80;6.20;;;;;;;12.98;96.28;94274.75;5097069;28;20433;-81
2023/04/18 01:27:33;;;;;;;7.20;6.60;;;;;;;12.96;96.22;94282.81;5096734;28;20465;-78
2023/04/18 01:30:00;;;;;;;9.90;6.53;;;;;;;12.98;96.60;94275.59;5096946;28;20455;-80
2023/04/18 01:32:27;;;;;;;7.73;6.33;;;;;;;13.01;96.59;94275.28;5097065;28;20490;-81
2023/04/18 01:34:54;;;;;;;6.57;5.70;;;;;;;13.03;96.26;94272.50;5077683;28;20472;-80
2023/04/18 01:37:20;;;;;;;8.10;6.23;;;;;;;13.07;96.31;94265.09;5096488;28;20456;-81
2023/04/18 01:39:48;;;;;;;6.60;5.97;;;;;;;13.10;96.08;94264.78;5096573;28;20449;-81
2023/04/18 01:42:16;;;;;;;9.20;6.23;;;;;;;13.11;95.85;94274.31;5096277;28;20511;-81
2023/04/18 01:44:43;;;;;;;8.40;6.30;;;;;;;13.10;96.12;94267.41;5096698;28;20472;-80
2023/04/18 01:47:09;;;;;;;6.40;5.80;;;;;;;13.11;96.23;94263.78;5096814;28;20495;-80
2023/04/18 01:49:36;;;;;;;6.97;6.33;;;;;;;13.12;96.19;94254.91;5096166;28;20447;-81
2023/04/18 01:52:03;;;;;;;7.00;5.67;;;;;;;13.11;96.32;94259.34;5096139;28;20954;-80
2023/04/18 01:54:30;;;;;;;6.47;5.67;;;;;;;13.11;96.22;94255.88;5043918;28;20527;-81
2023/04/18 01:56:56;;;;;;;6.57;5.90;;;;;;;13.13;96.43;94259.19;5095489;28;20451;-81
2023/04/18 01:59:25;;;;;;;6.93;6.23;;;;;;;13.13;96.60;94267.09;5043305;28;20989;-81
2023/04/18 02:01:52;;;;;;;6.87;6.27;;;;;;;13.13;96.31;94260.00;5095300;28;21006;-80
2023/04/18 02:04:19;;;;;;;7.10;6.40;;;;;;;12.89;96.75;94271.28;5095157;28;20453;-80
2023/04/18 02:06:45;;;;;;;8.43;6.77;;;;;;;12.66;97.18;94264.94;5096358;28;20431;-81
2023/04/18 02:09:12;;;;;;;11.03;8.10;;;;;;;12.70;97.47;94267.09;5096281;28;20435;-79
2023/04/18 02:11:39;;;;;;;9.93;8.83;;;;;;;12.55;98.38;94267.84;5096214;28;20440;-80
2023/04/18 02:14:06;;;;;;;9.00;8.10;;;;;;;12.56;98.56;94262.44;5095468;28;20506;-79
2023/04/18 02:16:34;;;;;;;11.33;8.80;;;;;;;12.59;99.10;94275.28;5095236;28;20483;-80
2023/04/18 02:19:03;;;;;;;10.57;8.50;;;;;;;12.51;100.00;94274.41;5094862;28;20526;-80
2023/04/18 02:21:30;;;;;;;12.20;9.87;;;;;;;12.39;100.00;94273.84;5095328;28;20475;-81
2023/04/18 02:23:57;;;;;;;12.47;11.17;;;;;;;12.28;100.00;94282.84;5096026;28;20459;-81
2023/04/18 02:26:24;;;;;;;18.50;11.77;;;;;;;12.18;100.00;94290.00;5095947;28;20444;-79
2023/04/18 02:28:50;;;;;;;16.40;13.03;;;;;;;12.17;100.00;94275.22;5095978;28;20444;-78
2023/04/18 02:31:17;;;;;;;14.17;12.67;;;;;;;12.26;100.00;94282.16;5096218;28;20453;-78
2023/04/18 02:33:46;;;;;;;21.30;14.27;;;;;;;12.18;100.00;94276.88;5043937;28;20841;-81
2023/04/18 02:36:13;;;;;;;20.10;14.67;;;;;;;12.31;100.00;94279.06;5095707;28;20951;-81
2023/04/18 02:38:40;;;;;;;19.40;15.13;;;;;;;12.35;100.00;94278.59;5095401;28;20923;-80
2023/04/18 02:41:06;;;;;;;20.40;16.10;;;;;;;12.46;100.00;94274.88;5095224;28;20503;-79
2023/04/18 02:43:33;;;;;;;22.10;16.87;;;;;;;12.52;100.00;94269.00;5095339;28;20924;-79
2023/04/18 02:46:00;;;;;;;15.33;12.60;;;;;;;12.60;100.00;94281.34;5095726;28;20923;-80
2023/04/18 02:48:27;;;;;;;18.73;13.60;;;;;;;12.65;100.00;94279.91;5095198;28;20459;-79
2023/04/18 02:51:02;;;;;;;20.80;15.00;;;;;;;12.69;100.00;94280.41;5060133;28;20788;-81
2023/04/18 02:53:28;;;;;;;17.30;14.00;;;;;;;12.70;100.00;94279.41;5095473;28;20516;-81
2023/04/18 02:55:55;;;;;;;21.87;15.37;;;;;;;12.72;100.00;94287.97;5094964;28;20453;-79
2023/04/18 02:58:22;;;;;;;18.40;14.27;;;;;;;12.70;100.00;94285.50;5095316;28;20778;-79
2023/04/18 03:00:49;;;;;;;21.70;14.57;;;;;;;12.72;100.00;94280.09;5095053;28;20535;-79
2023/04/18 03:03:16;;;;;;;17.37;13.30;;;;;;;12.72;100.00;94287.97;5043357;28;20517;-78
2023/04/18 03:05:43;;;;;;;16.37;13.27;;;;;;;12.69;100.00;94288.31;5043326;28;20559;-79
2023/04/18 03:08:12;;;;;;;16.90;13.40;;;;;;;12.68;100.00;94289.28;5095273;28;20495;-79
2023/04/18 03:10:39;;;;;;;22.80;15.13;;;;;;;12.68;100.00;94290.09;5095219;28;20448;-79
2023/04/18 03:13:06;;;;;;;21.93;14.47;;;;;;;12.69;100.00;94294.38;5094755;28;20434;-79
2023/04/18 03:15:33;;;;;;;20.43;13.90;;;;;;;12.64;100.00;94294.03;5094008;28;20443;-79
2023/04/18 03:17:59;;;;;;;17.90;13.80;;;;;;;12.62;100.00;94295.19;5094785;28;20451;-79
2023/04/18 03:20:26;;;;;;;18.00;13.87;;;;;;;12.48;100.00;94299.25;5094870;28;20428;-81
2023/04/18 03:22:53;;;;;;;20.53;13.90;;;;;;;12.46;100.00;94309.09;5094348;28;20489;-79
2023/04/18 03:25:21;;;;;;;16.50;13.17;;;;;;;12.40;100.00;94313.16;5094777;28;20444;-81
2023/04/18 03:27:48;;;;;;;20.40;13.27;;;;;;;12.43;100.00;94313.81;5102444;28;20439;-79
2023/04/18 03:30:15;;;;;;;16.93;14.60;;;;;;;12.39;100.00;94314.13;5114675;28;20435;-80
2023/04/18 03:32:42;;;;;;;22.50;15.13;;;;;;;12.44;100.00;94318.97;5114879;28;20459;-81
2023/04/18 03:35:09;;;;;;;27.23;15.83;;;;;;;12.41;100.00;94314.81;5115058;28;20468;-79
2023/04/18 03:37:36;;;;;;;22.57;14.73;;;;;;;12.38;100.00;94317.75;5114817;28;20498;-78
2023/04/18 03:40:04;;;;;;;21.43;14.60;;;;;;;12.29;100.00;94309.97;5114837;28;20442;-81
2023/04/18 03:42:32;;;;;;;19.33;14.03;;;;;;;12.33;100.00;94309.50;5114975;28;20468;-79
2023/04/18 03:44:59;;;;;;;21.80;16.23;;;;;;;12.30;100.00;94315.06;5114623;28;20499;-78
2023/04/18 03:47:25;;;;;;;25.13;16.67;;;;;;;12.17;100.00;94312.03;5114298;28;20446;-78
2023/04/18 03:49:53;;;;;;;31.40;18.97;;;;;;;12.18;100.00;94318.94;5114399;28;20447;-80
2023/04/18 03:52:20;;;;;;;28.50;17.57;;;;;;;12.21;100.00;94313.38;5114910;28;20468;-80
2023/04/18 03:54:46;;;;;;;22.40;16.20;;;;;;;12.18;100.00;94315.50;5063217;28;20960;-80
2023/04/18 03:57:13;;;;;;;20.17;15.87;;;;;;;12.25;100.00;94313.88;5114524;28;20807;-79
2023/04/18 03:59:41;;;;;;;21.37;17.00;;;;;;;12.30;100.00;94317.69;5114065;28;20442;-81
2023/04/18 04:02:08;;;;;;;27.00;17.93;;;;;;;12.32;100.00;94315.75;5114460;28;20475;-80
2023/04/18 04:04:35;;;;;;;25.73;17.80;;;;;;;12.39;100.00;94316.75;5114223;28;20445;-80
2023/04/18 04:07:02;;;;;;;24.07;18.13;;;;;;;12.43;100.00;94316.44;5114422;28;20475;-79
2023/04/18 04:09:29;;;;;;;29.37;18.87;;;;;;;12.48;100.00;94316.84;5113921;28;20439;-78
2023/04/18 04:11:56;;;;;;;27.80;19.60;;;;;;;12.43;100.00;94319.91;5114404;28;20914;-79
2023/04/18 04:14:23;;;;;;;25.63;18.90;;;;;;;12.51;100.00;94324.41;5114055;28;20446;-81
2023/04/18 04:16:51;;;;;;;32.37;20.47;;;;;;;12.53;100.00;94318.00;5114379;28;20432;-79
2023/04/18 04:19:18;;;;;;;27.70;20.10;;;;;;;12.56;100.00;94320.31;5114348;28;20443;-80
2023/04/18 04:21:45;;;;;;;27.13;20.00;;;;;;;12.63;100.00;94323.16;5113866;28;20448;-79
2023/04/18 04:24:12;;;;;;;25.70;18.30;;;;;;;12.66;100.00;94322.84;5114075;28;20453;-78
2023/04/18 04:26:39;;;;;;;20.63;16.80;;;;;;;12.74;100.00;94330.81;5114333;28;20452;-79
2023/04/18 04:29:05;;;;;;;24.93;18.00;;;;;;;12.80;100.00;94330.16;5112672;28;20449;-79
2023/04/18 04:31:32;;;;;;;23.40;15.00;;;;;;;12.83;100.00;94339.56;5093373;28;20433;-79
2023/04/18 04:34:02;;;;;;;22.93;15.23;;;;;;;12.88;100.00;94338.09;5093274;28;20479;-79
2023/04/18 04:40:23;;;;;;;21.43;15.80;;;;;;;13.03;100.00;94338.34;5053159;28;20466;-79
2023/04/18 04:42:52;;;;;;;20.50;14.30;;;;;;;13.12;100.00;94339.19;5053335;28;20480;-79
2023/04/18 04:45:22;;;;;;;21.73;16.40;;;;;;;13.18;100.00;94333.31;5053411;28;20492;-79
2023/04/18 04:47:49;;;;;;;30.27;16.83;;;;;;;13.20;100.00;94342.69;5053302;28;20999;-80
2023/04/18 04:50:19;;;;;;;23.37;16.13;;;;;;;13.11;100.00;94348.06;5018180;28;20513;-81
2023/04/18 04:52:45;;;;;;;25.80;16.70;;;;;;;12.98;100.00;94348.50;5052972;28;20449;-81
2023/04/18 04:55:12;;;;;;;24.03;17.40;;;;;;;12.89;100.00;94350.28;5018259;28;20952;-78
2023/04/18 04:57:39;;;;;;;24.87;18.70;;;;;;;12.94;100.00;94341.91;5053164;28;20448;-80
2023/04/18 05:00:07;;;;;;;24.53;17.20;;;;;;;12.94;100.00;94350.63;5053513;28;20446;-80
2023/04/18 05:02:34;;;;;;;26.30;17.67;;;;;;;12.88;100.00;94350.44;5053333;28;20588;-81
2023/04/18 05:05:01;;;;;;;25.73;17.43;;;;;;;12.76;100.00;94357.78;5053016;28;20452;-79
2023/04/18 05:07:30;;;;;;;24.80;17.10;;;;;;;12.58;100.00;94364.91;5034277;28;20949;-79
2023/04/18 05:09:57;;;;;;;21.40;15.90;;;;;;;12.67;100.00;94356.06;5034622;28;20452;-79
2023/04/18 05:12:24;;;;;;;25.03;17.70;;;;;;;12.73;100.00;94359.91;5053152;28;20443;-79
2023/04/18 05:14:50;;;;;;;22.37;15.93;;;;;;;12.73;100.00;94360.75;5034288;28;20805;-79
2023/04/18 05:17:17;;;;;;;23.80;17.90;;;;;;;12.79;100.00;94364.56;5051365;28;21015;-79
2023/04/18 05:19:44;;;;;;;19.87;15.47;;;;;;;12.83;100.00;94371.16;5053274;28;20445;-78
2023/04/18 05:22:11;;;;;;;29.30;15.50;;;;;;;12.82;100.00;94370.34;5052668;28;20998;-79
2023/04/18 05:24:40;;;;;;;23.77;17.37;;;;;;;12.82;100.00;94370.34;5052963;28;20438;-81
2023/04/18 05:27:06;;;;;;;23.30;17.03;;;;;;;12.83;100.00;94366.72;5053521;28;20988;-79
2023/04/18 05:29:33;;;;;;;30.27;17.73;;;;;;;12.81;100.00;94366.03;5053280;28;20453;-84
2023/04/18 05:32:01;;;;;;;18.20;15.50;;;;;;;12.85;100.00;94366.56;5053480;28;20520;-79
2023/04/18 05:34:28;;;;;;;20.77;14.77;;;;;;;12.90;100.00;94365.09;5053270;28;20535;-80
2023/04/18 05:36:55;;;;;;;22.50;15.90;;;;;;;12.90;100.00;94362.47;5053286;28;20454;-83
2023/04/18 05:39:22;;;;;;;22.00;15.43;;;;;;;12.96;100.00;94364.47;5080672;28;20465;-80
2023/04/18 05:41:50;;;;;;;18.50;14.40;;;;;;;12.96;100.00;94372.38;5099071;28;21000;-79
2023/04/18 05:44:18;;;;;;;18.73;14.80;;;;;;;12.95;100.00;94365.44;5098065;28;20469;-79
2023/04/18 05:46:45;;;;;;;17.90;14.27;;;;;;;13.00;100.00;94368.44;5097405;28;20556;-79
2023/04/18 05:49:12;;;;;;;19.10;15.17;;;;;;;13.03;100.00;94368.13;5061007;28;20463;-80
2023/04/18 05:51:39;;;;;;;21.70;16.20;;;;;;;13.07;100.00;94367.81;5097303;28;20441;-79
2023/04/18 05:54:05;;;;;;;21.50;15.63;;;;;;;13.13;100.00;94375.91;5095613;28;20468;-80
2023/04/18 05:56:32;;;;;;;17.40;13.60;;;;;;;13.18;100.00;94373.66;5112229;28;20509;-80
2023/04/18 05:59:01;;;;;;;24.50;16.10;;;;;;;13.23;100.00;94383.72;5100717;28;20441;-79
2023/04/18 06:01:27;;;;;;;23.05;17.30;;;;;;;13.29;100.00;94377.81;5095553;28;20436;-79
2023/04/18 06:03:55;;;;;;;27.03;19.00;;;;;;;13.33;100.00;94385.25;5096408;28;20231;-79
2023/04/18 06:06:22;;;;;;;26.13;19.47;;;;;;;13.37;100.00;94385.75;5096264;28;20545;-80
2023/04/18 06:08:48;;;;;;;24.13;18.17;;;;;;;13.38;100.00;94382.13;5096094;28;20781;-79
2023/04/18 06:11:15;;;;;;;24.97;17.30;;;;;;;13.42;100.00;94386.09;5095827;28;20453;-79
2023/04/18 06:13:43;;;;;;;26.23;16.87;;;;;;;13.46;100.00;94384.78;5095786;28;20457;-80
2023/04/18 06:16:11;;;;;;;21.10;14.90;;;;;;;13.54;100.00;94383.97;5095574;28;20430;-80
2023/04/18 06:18:38;;;;;;;22.03;15.93;;;;;;;13.61;98.65;94383.19;5095756;28;20494;-79
2023/04/18 06:21:05;;;;;;;19.27;15.07;;;;;;;13.67;96.67;94380.91;5044028;28;20443;-80
2023/04/18 06:23:32;;;;;;;21.60;15.80;;;;;;;13.68;95.09;94387.81;5096194;28;20837;-81
2023/04/18 06:25:59;;;;;;;12.40;11.10;;;;;;;13.61;93.34;94385.00;5060299;28;20456;-80
2023/04/18 06:28:27;;;;;;;14.53;11.27;;;;;;;13.59;91.56;94393.09;5096087;28;20429;-81
2023/04/18 06:30:53;;;;;;;15.67;12.87;;;;;;;13.55;91.86;94388.25;5060614;28;20457;-85
2023/04/18 06:33:22;;;;;;;21.57;14.57;;;;;;;13.57;92.61;94389.75;5044146;28;20428;-82
2023/04/18 06:35:49;;;;;;;20.30;13.10;;;;;;;13.58;92.64;94394.03;5089798;28;20461;-81
2023/04/18 06:38:15;;;;;;;19.47;13.97;;;;;;;13.51;95.31;94384.31;5075246;28;20981;-80
2023/04/18 06:40:42;;;;;;;17.03;12.03;;;;;;;13.13;95.98;94385.63;5039786;28;20437;-79
2023/04/18 06:43:09;;;;;;;20.50;11.93;;;;;;;13.27;96.58;94390.31;5095337;28;20488;-79
2023/04/18 06:45:36;;;;;;;19.17;13.30;;;;;;;13.18;95.01;94380.72;5096130;28;20437;-80
2023/04/18 06:48:03;;;;;;;16.27;12.73;;;;;;;13.23;95.91;94388.97;5094995;28;20437;-79
2023/04/18 06:50:31;;;;;;;18.60;13.80;;;;;;;13.20;95.31;94389.31;5094962;28;20445;-80
2023/04/18 06:52:58;;;;;;;19.70;12.87;;;;;;;12.93;94.14;94385.84;5095445;28;20502;-80
2023/04/18 06:55:25;;;;;;;35.50;16.23;;;;;;;12.97;94.95;94386.34;5089677;28;20460;-84
2023/04/18 06:57:52;;;;;;;224.97;37.00;;;;;;;13.15;94.79;94387.13;5075302;28;20430;-81
2023/04/18 07:00:20;;;;;;;12.30;9.00;;;;;;;13.37;92.40;94392.84;5092297;28;20453;-81
2023/04/18 07:02:47;;;;;;;14.83;11.30;;;;;;;13.17;92.07;94389.59;5074689;28;20998;-80
2023/04/18 07:05:14;;;;;;;15.27;11.63;;;;;;;13.13;92.97;94390.88;5074914;28;20435;-81
2023/04/18 07:07:42;;;;;;;16.23;11.10;;;;;;;13.27;92.75;94399.03;5040089;28;20446;-81
2023/04/18 07:10:10;;;;;;;12.17;9.40;;;;;;;13.45;89.93;94401.59;5077665;28;20449;-82
2023/04/18 07:12:37;;;;;;;14.03;9.57;;;;;;;13.68;89.43;94399.19;5088747;28;20451;-81
2023/04/18 07:15:04;;;;;;;20.33;13.40;;;;;;;13.83;87.24;94397.56;5087889;28;20788;-81
2023/04/18 07:17:31;;;;;;;13.80;12.27;;;;;;;14.04;86.67;94393.66;5039489;28;20442;-81
2023/04/18 07:19:58;;;;;;;21.20;11.43;;;;;;;14.30;85.98;94391.69;5042427;28;20935;-79
2023/04/18 07:22:25;;;;;;;14.93;10.50;;;;;;;14.49;82.88;94398.50;5094646;28;20440;-79
2023/04/18 07:24:53;;;;;;;9.83;8.17;;;;;;;14.45;76.36;94411.19;5094667;28;20441;-80
2023/04/18 07:27:20;;;;;;;12.33;7.80;;;;;;;14.50;76.46;94410.72;5094654;28;20502;-79
2023/04/18 07:29:47;;;;;;;15.60;9.93;;;;;;;14.62;78.00;94406.72;5094095;28;20847;-81
2023/04/18 07:32:14;;;;;;;254.57;44.87;;;;;;;14.74;80.25;94400.09;5094568;28;20433;-80
2023/04/18 07:34:42;;;;;;;312.57;46.07;;;;;;;14.84;81.05;94403.41;5094587;28;20497;-80
2023/04/18 07:37:09;;;;;;;30.10;11.23;;;;;;;14.81;78.92;94411.66;5075436;28;21099;-79
2023/04/18 07:39:36;;;;;;;10.37;9.30;;;;;;;14.85;78.63;94409.50;5094611;28;20464;-79
2023/04/18 07:42:04;;;;;;;337.30;52.17;;;;;;;14.93;78.56;94406.84;5094384;28;20498;-79
2023/04/18 07:44:31;;;;;;;533.13;77.77;;;;;;;15.09;77.82;94411.28;5094631;28;20480;-80
2023/04/18 07:46:58;;;;;;;41.13;13.30;;;;;;;15.07;74.94;94419.38;5074924;28;20475;-81
2023/04/18 07:49:25;;;;;;;20.73;10.10;;;;;;;15.19;75.17;94417.19;5092801;28;20429;-80
2023/04/18 07:51:51;;;;;;;68.00;14.30;;;;;;;15.24;75.53;94419.31;5093562;28;20445;-80
2023/04/18 07:54:19;;;;;;;12.17;8.50;;;;;;;15.30;73.96;94424.75;5094368;28;20483;-79
2023/04/18 07:56:45;;;;;;;12.43;7.93;;;;;;;15.37;73.32;94414.34;5094118;28;20524;-79
2023/04/18 07:59:13;;;;;;;8.67;7.77;;;;;;;15.47;72.80;94422.88;5093970;28;20443;-79
2023/04/18 08:01:40;;;;;;;9.77;7.77;;;;;;;15.50;71.63;94418.06;5093603;28;20429;-80
2023/04/18 08:04:07;;;;;;;14.43;8.63;;;;;;;15.38;71.79;94423.91;5093669;28;20521;-80
2023/04/18 08:06:34;;;;;;;7.87;7.00;;;;;;;15.17;70.05;94427.13;5092271;28;20440;-79
2023/04/18 08:09:04;;;;;;;6.73;5.47;;;;;;;14.70;67.94;94433.13;5092988;28;20437;-80
2023/04/18 08:11:31;;;;;;;6.70;5.80;;;;;;;14.20;69.47;94431.44;5092552;28;20766;-80
2023/04/18 08:13:58;;;;;;;6.40;5.43;;;;;;;14.20;70.62;94426.16;5092066;28;20926;-80
2023/04/18 08:16:26;;;;;;;6.37;5.77;;;;;;;14.23;71.93;94420.56;5040251;28;20448;-81
2023/04/18 08:18:53;;;;;;;7.60;6.57;;;;;;;14.30;72.77;94427.81;5092032;28;20458;-80
2023/04/18 08:21:20;;;;;;;14.10;6.90;;;;;;;14.20;71.60;94425.34;5091922;28;20529;-80
2023/04/18 08:23:47;;;;;;;6.80;6.00;;;;;;;13.87;72.96;94424.44;5092249;28;20485;-80
2023/04/18 08:26:14;;;;;;;6.30;5.70;;;;;;;13.93;73.19;94431.72;5092124;28;20478;-80
2023/04/18 08:28:41;;;;;;;6.17;5.60;;;;;;;13.83;72.56;94425.75;5091846;28;20928;-80
2023/04/18 08:31:12;;;;;;;7.80;6.70;;;;;;;13.89;72.31;94422.50;5092117;28;20526;-80
2023/04/18 08:33:40;;;;;;;5.70;5.20;;;;;;;13.75;69.78;94436.28;5091581;28;20495;-80
2023/04/18 08:36:07;;;;;;;7.77;5.50;;;;;;;13.69;70.89;94429.84;5092242;28;20458;-80
2023/04/18 08:38:34;;;;;;;6.97;5.60;;;;;;;13.73;71.63;94433.81;5091986;28;20468;-80
2023/04/18 08:41:01;;;;;;;9.93;6.70;;;;;;;13.86;71.85;94428.06;5092442;28;20449;-80
2023/04/18 08:43:30;;;;;;;8.00;6.80;;;;;;;14.10;73.42;94430.75;5091541;28;20490;-81
2023/04/18 08:46:00;;;;;;;9.87;7.07;;;;;;;14.38;71.87;94418.09;5091977;28;20442;-80
2023/04/18 08:48:28;;;;;;;7.97;6.90;;;;;;;14.63;70.43;94428.69;5091709;28;20539;-80
2023/04/18 08:50:58;;;;;;;7.37;6.50;;;;;;;14.50;70.50;94423.91;5091808;28;20436;-80
2023/04/18 08:53:26;;;;;;;7.10;6.37;;;;;;;14.70;70.20;94422.56;5091950;28;20826;-81
2023/04/18 08:55:55;;;;;;;6.93;6.07;;;;;;;14.92;69.32;94418.41;5091606;28;21040;-80
2023/04/18 08:58:23;;;;;;;8.97;7.07;;;;;;;14.87;69.78;94418.91;5091594;28;20439;-80
2023/04/18 09:00:50;;;;;;;8.13;6.80;;;;;;;14.78;67.86;94425.22;5091537;28;20461;-80
2023/04/18 09:03:36;;;;;;;6.87;6.10;;;;;;;14.85;67.35;94422.72;5092000;28;20900;-81
2023/04/18 09:06:12;;;;;;;7.43;6.33;;;;;;;14.94;66.05;94424.34;5045496;28;20485;-80
2023/04/18 09:08:42;;;;;;;7.97;7.10;;;;;;;14.91;66.70;94431.78;5091888;28;20451;-80
2023/04/18 09:11:22;;;;;;;7.60;6.33;;;;;;;15.13;67.28;94423.16;5091231;28;20447;-80
2023/04/18 09:13:49;;;;;;;6.70;6.03;;;;;;;15.21;67.80;94423.13;5094779;28;20524;-80
2023/04/18 09:16:19;;;;;;;8.20;7.27;;;;;;;15.30;69.19;94430.03;5095693;28;20452;-80
2023/04/18 09:19:11;;;;;;;12.47;7.57;;;;;;;15.36;69.26;94424.09;5095488;28;20454;-80
2023/04/18 09:21:43;;;;;;;21.50;7.93;;;;;;;15.47;68.48;94425.53;5096029;28;20459;-80
2023/04/18 09:24:19;;;;;;;10.83;7.13;;;;;;;15.45;67.62;94422.22;5095160;28;21120;-80
2023/04/18 09:26:48;;;;;;;9.23;7.90;;;;;;;15.36;67.61;94423.25;5095486;28;20450;-80
2023/04/18 09:29:16;;;;;;;13.93;7.20;;;;;;;15.21;69.07;94427.59;5095719;28;20537;-79
2023/04/18 09:31:59;;;;;;;9.23;7.00;;;;;;;15.34;68.65;94423.44;5095469;28;20807;-79
2023/04/18 09:34:27;;;;;;;7.43;6.20;;;;;;;15.23;67.82;94429.06;5072282;28;20555;-79
2023/04/18 09:37:11;;;;;;;7.33;6.57;;;;;;;15.09;68.04;94427.13;5072688;28;20450;-80
2023/04/18 09:39:38;;;;;;;9.10;6.53;;;;;;;15.00;69.05;94425.50;4973356;28;20913;-80
2023/04/18 09:42:06;;;;;;;6.70;5.90;;;;;;;14.78;69.69;94414.66;4973745;28;20475;-80
2023/04/18 09:44:32;;;;;;;7.60;6.87;;;;;;;14.63;70.19;94421.59;4973301;28;20477;-78
2023/04/18 09:46:59;;;;;;;7.03;6.00;;;;;;;14.60;70.24;94421.91;4973413;28;21014;-79
2023/04/18 09:49:27;;;;;;;7.87;6.13;;;;;;;14.71;70.64;94418.94;4973376;28;20457;-79
2023/04/18 09:51:55;;;;;;;7.63;5.70;;;;;;;14.90;71.23;94416.94;4973515;28;20445;-80
2023/04/18 09:54:25;;;;;;;8.60;6.37;;;;;;;14.94;71.22;94418.25;4973342;28;20448;-80
2023/04/18 09:56:54;;;;;;;6.73;6.07;;;;;;;15.06;69.98;94409.81;4973433;28;20456;-80
2023/04/18 09:59:41;;;;;;;9.53;6.57;;;;;;;15.13;70.40;94415.22;4973455;28;20904;-79
2023/04/18 10:02:15;;;;;;;5.20;4.70;;;;;;;15.21;70.06;94414.38;4973345;28;20442;-79
2023/04/18 10:04:43;;;;;;;5.77;4.67;;;;;;;15.31;69.80;94415.00;4973190;28;20492;-79
2023/04/18 10:07:11;;;;;;;4.83;4.30;;;;;;;15.20;68.45;94408.28;4973319;28;20534;-79
2023/04/18 10:09:43;;;;;;;6.73;5.83;;;;;;;15.30;68.52;94414.16;4972884;28;21031;-79
2023/04/18 10:12:11;;;;;;;6.53;5.00;;;;;;;15.32;68.99;94412.19;4999647;28;20981;-80
2023/04/18 10:14:41;;;;;;;7.20;6.50;;;;;;;15.30;69.43;94398.31;5012235;28;20486;-80
2023/04/18 10:17:08;;;;;;;6.90;5.80;;;;;;;15.26;68.93;94420.81;5060331;28;20451;-79
2023/04/18 10:19:35;;;;;;;6.63;5.93;;;;;;;15.36;68.94;94408.22;5092279;28;20923;-79
2023/04/18 10:22:02;;;;;;;7.20;6.50;;;;;;;15.56;69.95;94405.97;5094592;28;20504;-79
2023/04/18 10:24:51;;;;;;;6.63;6.03;;;;;;;15.73;68.75;94402.31;5093609;28;20481;-79
2023/04/18 10:27:19;;;;;;;6.53;5.93;;;;;;;15.87;67.44;94398.06;5094410;28;20452;-80
2023/04/18 10:29:47;;;;;;;7.57;6.70;;;;;;;16.00;67.16;94400.16;5094412;28;20513;-80
2023/04/18 10:32:14;;;;;;;6.83;6.13;;;;;;;16.22;67.40;94394.06;5094378;28;20448;-80
2023/04/18 10:34:41;;;;;;;7.40;6.53;;;;;;;16.39;67.46;94395.56;5094754;28;20441;-79
2023/04/18 10:37:08;;;;;;;7.20;6.50;;;;;;;16.48;66.45;94388.41;5093319;28;20992;-79
2023/04/18 10:39:59;;;;;;;8.93;5.03;;;;;;;16.56;64.52;94392.81;5095900;28;20509;-79
2023/04/18 10:43:07;;;;;;;5.63;4.63;;;;;;;16.57;63.23;94389.97;5073171;28;20502;-81
2023/04/18 10:45:35;;;;;;;4.67;4.07;;;;;;;16.62;63.39;94386.78;4974209;28;21011;-81
2023/04/18 10:48:24;;;;;;;5.47;4.97;;;;;;;16.69;63.44;94385.09;4974610;28;20991;-78
2023/04/18 10:51:13;;;;;;;4.87;4.37;;;;;;;16.84;63.12;94398.38;4955312;29;20446;-80
2023/04/18 10:53:43;;;;;;;5.40;4.60;;;;;;;16.82;63.69;94389.78;4954525;29;20934;-80
2023/04/18 10:56:14;;;;;;;4.60;4.17;;;;;;;16.87;62.63;94382.94;4954870;29;20459;-80
2023/04/18 10:58:42;;;;;;;5.00;4.57;;;;;;;16.99;62.88;94385.97;4954543;29;20452;-78
2023/04/18 11:01:11;;;;;;;4.50;4.20;;;;;;;17.16;62.84;94387.44;4954989;29;20450;-79
2023/04/18 11:03:38;;;;;;;5.77;5.27;;;;;;;17.22;62.14;94372.63;4953900;29;20533;-79
2023/04/18 11:06:05;;;;;;;5.27;4.77;;;;;;;16.98;61.16;94379.84;4954638;29;20465;-79
2023/04/18 11:08:32;;;;;;;4.70;4.30;;;;;;;17.00;61.95;94372.53;4954591;29;20461;-79
2023/04/18 11:10:59;;;;;;;4.87;4.10;;;;;;;16.42;63.36;94365.25;4954416;29;20474;-79
2023/04/18 11:13:28;;;;;;;9.90;5.70;;;;;;;16.57;64.06;94357.38;4954523;29;20449;-79
2023/04/18 11:15:54;;;;;;;11.93;4.90;;;;;;;16.66;65.49;94365.09;4954555;28;20510;-79
2023/04/18 11:18:21;;;;;;;6.30;5.70;;;;;;;16.40;64.92;94364.63;4935721;28;20925;-80
2023/04/18 11:20:52;;;;;;;5.10;4.17;;;;;;;16.24;64.54;94370.06;5012887;28;20813;-79
2023/04/18 11:23:23;;;;;;;6.80;5.50;;;;;;;16.32;66.67;94359.41;5062578;28;20930;-79
2023/04/18 11:25:53;;;;;;;5.67;5.17;;;;;;;16.41;67.96;94358.31;5074819;28;20490;-79
2023/04/18 11:28:21;;;;;;;7.83;4.80;;;;;;;16.19;66.53;94361.81;5074213;28;20452;-78
2023/04/18 11:30:49;;;;;;;9.40;4.03;;;;;;;16.25;68.45;94358.47;5073935;28;20471;-80